Time;durP1;ratioP1;P1;durP2;ratioP2;P2;SDS_P1;SDS_P2;PMS_P1;PMS_P2;Temp;Humidity;BMP_temperature;BMP_pressure;BME280_temperature;BME280_humidity;BME280_pressure;Samples;Min_cycle;Max_cycle;Signal;HPM_P1;HPM_P2
2022/08/08 00:03:52;;;;;;;0.98;0.88;;;;;;;19.86;50.58;97445.28;12838957;23;20027;-62
2022/08/08 00:09:30;;;;;;;0.93;0.90;;;;;;;19.86;50.61;97445.28;12838790;23;20041;-62
2022/08/08 00:15:11;;;;;;;1.70;0.97;;;;;;;19.85;50.55;97438.28;12881133;23;20070;-63
2022/08/08 00:20:30;;;;;;;0.93;0.90;;;;;;;19.88;50.56;97442.28;12838175;23;20032;-62
2022/08/08 00:25:53;;;;;;;1.15;0.90;;;;;;;19.86;50.54;97434.47;12861445;23;20016;-61
2022/08/08 00:31:35;;;;;;;1.10;0.80;;;;;;;19.86;50.49;97437.19;12860991;23;20025;-62
2022/08/08 00:36:57;;;;;;;0.80;0.80;;;;;;;19.87;50.63;97433.34;12863670;23;20021;-62
2022/08/08 00:42:19;;;;;;;0.95;0.90;;;;;;;19.86;50.62;97437.19;12843229;23;20024;-62
2022/08/08 00:48:08;;;;;;;0.80;0.80;;;;;;;19.86;50.71;97439.88;12864337;23;20025;-61
2022/08/08 00:53:47;;;;;;;0.88;0.70;;;;;;;19.87;50.65;97451.47;12864431;23;20028;-62
2022/08/08 00:59:37;;;;;;;1.00;0.90;;;;;;;19.86;50.63;97439.88;12862431;23;20017;-62
2022/08/08 01:05:21;;;;;;;1.27;0.80;;;;;;;19.86;50.74;97442.59;12864529;23;20017;-62
2022/08/08 01:11:27;;;;;;;0.70;0.70;;;;;;;19.86;50.61;97442.59;12841356;23;20066;-62
2022/08/08 01:17:20;;;;;;;1.52;0.80;;;;;;;19.87;50.76;97451.47;12842221;23;20027;-62
2022/08/08 01:22:53;;;;;;;0.70;0.70;;;;;;;19.85;50.82;97440.97;12883656;23;20333;-62
2022/08/08 01:28:15;;;;;;;;;;;;;;;19.85;50.52;97437.47;12885056;23;20398;-62
2022/08/08 01:33:49;;;;;;;0.95;0.85;;;;;;;19.85;50.69;97443.69;12859565;23;19920;-62
2022/08/08 01:39:36;;;;;;;0.80;0.80;;;;;;;19.86;50.76;97441.78;12820346;23;20025;-62
2022/08/08 01:45:07;;;;;;;1.00;0.90;;;;;;;19.85;50.76;97440.97;12841302;23;20016;-62
2022/08/08 01:51:12;;;;;;;1.05;0.80;;;;;;;19.86;50.68;97439.88;12861349;23;20322;-62
2022/08/08 01:56:41;;;;;;;1.08;0.95;;;;;;;19.85;50.79;97432.88;12862328;23;20021;-59
2022/08/08 02:02:01;;;;;;;;;;;;;;;19.85;50.57;97440.97;12862745;23;20119;-62
2022/08/08 02:08:06;;;;;;;0.88;0.82;;;;;;;19.85;50.66;97438.28;12883543;23;20340;-62
2022/08/08 02:13:49;;;;;;;0.95;0.95;;;;;;;19.86;50.64;97428.28;12833561;23;20437;-62
2022/08/08 02:19:13;;;;;;;0.95;0.75;;;;;;;19.85;50.66;97422.03;12863608;23;20025;-62
2022/08/08 02:24:42;;;;;;;1.00;0.90;;;;;;;19.85;50.76;97427.44;12863602;23;20027;-62
2022/08/08 02:30:06;;;;;;;1.10;0.93;;;;;;;19.85;50.82;97432.88;12840064;23;20013;-62
2022/08/08 02:35:37;;;;;;;1.00;0.70;;;;;;;19.85;50.76;97437.47;12861552;23;20038;-62
2022/08/08 02:41:18;;;;;;;0.75;0.75;;;;;;;19.85;50.74;97432.88;12840478;23;20020;-62
2022/08/08 02:46:51;;;;;;;0.88;0.80;;;;;;;19.85;50.71;97437.47;12839800;23;20074;-62
2022/08/08 02:52:34;;;;;;;0.98;0.80;;;;;;;19.83;50.63;97432.38;12839687;23;20027;-63
2022/08/08 02:58:13;;;;;;;0.80;0.80;;;;;;;19.85;50.55;97440.97;12862553;23;20024;-62
2022/08/08 03:03:51;;;;;;;;;;;;;;;19.84;50.43;97444.81;12862206;23;20036;-62
2022/08/08 03:09:13;;;;;;;0.80;0.80;;;;;;;19.84;50.69;97442.09;12860772;23;19966;-60
2022/08/08 03:14:55;;;;;;;0.82;0.70;;;;;;;19.83;50.58;97448.59;12860034;23;20035;-61
2022/08/08 03:20:16;;;;;;;1.00;0.90;;;;;;;19.83;50.61;97451.31;12882133;23;20017;-62
2022/08/08 03:25:38;;;;;;;0.80;0.80;;;;;;;19.82;50.78;97449.72;12839551;23;20024;-62
2022/08/08 03:30:59;;;;;;;1.00;0.90;;;;;;;19.83;50.60;97445.09;12859483;23;20017;-62
2022/08/08 03:36:19;;;;;;;0.70;0.70;;;;;;;19.83;50.67;97448.59;12861058;23;20094;-60
2022/08/08 03:41:39;;;;;;;0.77;0.70;;;;;;;19.83;50.65;97453.22;12839528;23;20070;-63
2022/08/08 03:47:01;;;;;;;0.80;0.80;;;;;;;19.83;50.69;97448.59;12860321;23;20020;-62
2022/08/08 03:52:21;;;;;;;0.85;0.85;;;;;;;19.83;50.64;97462.13;12861995;23;20027;-62
2022/08/08 03:57:45;;;;;;;0.80;0.80;;;;;;;19.83;50.54;97469.44;12861553;23;20021;-62
2022/08/08 04:03:07;;;;;;;0.90;0.90;;;;;;;19.83;50.55;97472.94;12861645;23;20017;-62
2022/08/08 04:08:26;;;;;;;0.80;0.80;;;;;;;19.83;50.58;97474.84;12838611;23;20028;-59
2022/08/08 04:13:46;;;;;;;1.33;1.00;;;;;;;19.45;46.73;97478.72;12837858;23;20071;-61
2022/08/08 04:19:06;;;;;;;2.60;1.02;;;;;;;19.12;46.79;97481.63;12861346;23;20028;-61
2022/08/08 04:24:25;;;;;;;1.95;1.02;;;;;;;19.00;47.60;97481.34;12881350;23;20384;-62
2022/08/08 04:29:46;;;;;;;1.50;1.00;;;;;;;19.20;48.22;97487.41;12861240;23;20025;-62
2022/08/08 04:35:06;;;;;;;2.47;1.00;;;;;;;19.39;48.92;97493.44;12859433;23;20032;-59
2022/08/08 04:40:30;;;;;;;1.23;1.00;;;;;;;19.49;49.10;97501.31;12838358;23;20024;-59
2022/08/08 04:45:50;;;;;;;1.58;1.10;;;;;;;19.54;49.25;97498.50;12859372;23;20025;-60
2022/08/08 04:51:10;;;;;;;1.45;1.10;;;;;;;19.58;49.42;97498.66;12880725;23;20017;-61
2022/08/08 04:56:30;;;;;;;2.95;1.10;;;;;;;19.60;49.40;97507.28;12838280;23;20025;-58
2022/08/08 05:01:50;;;;;;;2.75;1.50;;;;;;;19.62;49.34;97513.19;12860766;23;20020;-60
2022/08/08 05:07:11;;;;;;;4.43;1.30;;;;;;;19.45;47.12;97503.03;12838327;23;20047;-61
2022/08/08 05:12:31;;;;;;;1.70;1.20;;;;;;;19.35;48.23;97517.56;12838402;23;20016;-61
2022/08/08 05:17:52;;;;;;;1.67;1.25;;;;;;;19.44;48.60;97520.31;12858564;23;20024;-62
2022/08/08 05:23:12;;;;;;;1.80;1.20;;;;;;;19.50;48.49;97527.25;12862212;23;20016;-62
2022/08/08 05:28:31;;;;;;;2.92;1.52;;;;;;;19.55;48.49;97529.00;12863174;23;20526;-60
2022/08/08 05:33:51;;;;;;;2.53;1.33;;;;;;;19.56;48.47;97534.13;12882489;23;20396;-62
2022/08/08 05:39:12;;;;;;;1.50;1.10;;;;;;;19.58;48.49;97522.19;12841794;23;20322;-63
2022/08/08 05:44:36;;;;;;;3.20;1.20;;;;;;;19.59;48.59;97524.59;12861628;23;20396;-61
2022/08/08 05:49:56;;;;;;;2.20;1.25;;;;;;;19.60;48.36;97531.59;12841855;23;20078;-61
2022/08/08 05:55:19;;;;;;;1.95;1.30;;;;;;;19.61;48.45;97535.09;12841241;23;20326;-62
2022/08/08 06:00:39;;;;;;;1.20;1.10;;;;;;;19.62;48.36;97533.97;12861512;23;20492;-62
2022/08/08 06:19:52;;;;;;;1.37;1.20;;;;;;;19.61;48.66;97537.81;12754369;23;20017;-91
2022/08/08 06:25:12;;;;;;;3.00;1.30;;;;;;;19.61;47.98;97543.22;12714264;23;20024;-91
2022/08/08 06:30:35;;;;;;;1.40;1.30;;;;;;;19.60;47.58;97545.13;12737107;23;20025;-92
2022/08/08 06:35:56;;;;;;;2.33;1.20;;;;;;;19.59;47.41;97545.41;12715708;23;20021;-91
2022/08/08 06:41:17;;;;;;;1.27;1.05;;;;;;;19.56;47.23;97542.22;12780485;23;20037;-91
2022/08/08 06:46:40;;;;;;;1.55;1.10;;;;;;;19.56;46.97;97549.50;12761118;23;20021;-92
2022/08/08 06:52:00;;;;;;;1.88;1.23;;;;;;;19.55;47.56;97546.03;12780688;23;20021;-90
2022/08/08 06:57:23;;;;;;;2.92;1.20;;;;;;;19.55;47.25;97551.44;12715609;23;20025;-91
2022/08/08 07:02:57;;;;;;;1.80;1.23;;;;;;;19.52;46.76;97554.75;12737242;23;20381;-92
2022/08/08 07:08:20;;;;;;;1.23;1.10;;;;;;;19.50;47.07;97548.84;12759780;23;20013;-90
2022/08/08 07:13:44;;;;;;;2.28;0.98;;;;;;;19.50;47.15;97550.75;12755265;23;20021;-92
2022/08/08 07:19:18;;;;;;;1.17;1.00;;;;;;;19.49;47.17;97555.34;12753110;23;20032;-91
2022/08/08 07:24:51;;;;;;;3.58;1.00;;;;;;;19.49;47.37;97558.06;12713847;23;20155;-90
2022/08/08 07:30:11;;;;;;;1.00;0.93;;;;;;;19.51;47.33;97555.06;12734245;23;20021;-90
2022/08/08 07:35:35;;;;;;;1.70;1.00;;;;;;;19.53;47.46;97555.53;12738565;23;20327;-89
2022/08/08 07:40:59;;;;;;;1.20;0.90;;;;;;;19.54;47.54;97562.53;12734960;23;20025;-90
2022/08/08 07:46:22;;;;;;;1.27;0.90;;;;;;;19.56;47.70;97558.44;12734974;23;20072;-90
2022/08/08 07:51:43;;;;;;;3.05;1.10;;;;;;;19.58;48.18;97570.84;12759489;23;20097;-90
2022/08/08 07:57:35;;;;;;;1.90;1.17;;;;;;;19.56;48.02;97574.66;12800565;23;20028;-90
2022/08/08 08:03:06;;;;;;;1.20;0.90;;;;;;;19.58;47.91;97578.94;12755593;23;20061;-91
2022/08/08 08:08:39;;;;;;;0.85;0.70;;;;;;;19.58;48.06;97577.03;12754923;23;20319;-91
2022/08/08 08:14:07;;;;;;;1.48;0.98;;;;;;;19.58;47.89;97581.66;12714277;23;20040;-90
2022/08/08 08:19:37;;;;;;;2.13;0.93;;;;;;;19.59;47.86;97577.84;12781027;23;20025;-90
2022/08/08 08:24:58;;;;;;;1.20;1.00;;;;;;;19.59;48.14;97585.97;12737179;23;20052;-89
2022/08/08 08:30:19;;;;;;;2.42;1.00;;;;;;;19.59;48.14;97586.75;12800213;23;20034;-89
2022/08/08 08:35:39;;;;;;;1.55;0.82;;;;;;;19.59;47.79;97589.44;12798642;23;20326;-89
2022/08/08 08:41:00;;;;;;;1.00;0.90;;;;;;;19.61;48.02;97597.28;12778327;23;20087;-90
2022/08/08 08:46:21;;;;;;;1.15;0.80;;;;;;;19.61;47.88;97594.56;12799000;23;20017;-89
2022/08/08 08:51:42;;;;;;;1.15;0.90;;;;;;;19.61;47.63;97594.56;12757736;23;20017;-89
2022/08/08 08:57:05;;;;;;;2.65;1.45;;;;;;;19.61;47.82;97589.16;12740822;23;20115;-90
2022/08/08 09:02:26;;;;;;;5.43;1.80;;;;;;;19.60;47.93;97585.66;12783029;23;20291;-90
2022/08/08 09:07:52;;;;;;;2.58;1.25;;;;;;;19.62;47.90;97598.84;12803671;23;20362;-90
2022/08/08 09:13:15;;;;;;;1.67;1.20;;;;;;;19.63;48.22;97589.66;12742408;23;20024;-90
2022/08/08 09:18:35;;;;;;;3.92;1.30;;;;;;;19.63;47.81;97589.66;12802115;23;20088;-89
2022/08/08 09:23:55;;;;;;;2.25;1.08;;;;;;;19.62;48.08;97593.44;12760345;23;20021;-90
2022/08/08 09:29:24;;;;;;;1.55;1.10;;;;;;;19.63;48.16;97597.75;12781710;23;20037;-90
2022/08/08 09:34:49;;;;;;;2.40;1.00;;;;;;;19.64;48.36;97593.94;12761094;23;20053;-90
2022/08/08 09:40:13;;;;;;;1.33;1.15;;;;;;;19.65;48.24;97590.16;12760450;23;20025;-89
2022/08/08 09:45:55;;;;;;;1.83;1.13;;;;;;;19.64;48.41;97589.34;12802953;23;20017;-89
2022/08/08 09:51:17;;;;;;;1.30;1.20;;;;;;;19.65;48.64;97590.94;12801472;23;20095;-89
2022/08/08 09:56:40;;;;;;;2.65;1.20;;;;;;;19.66;48.39;97591.72;12780187;23;20524;-88
2022/08/08 10:02:02;;;;;;;0.82;0.82;;;;;;;19.65;48.33;97582.03;12779767;23;20024;-89
2022/08/08 10:07:21;;;;;;;2.03;1.05;;;;;;;19.65;48.53;97582.03;12778655;23;20071;-89
2022/08/08 10:12:41;;;;;;;1.30;1.10;;;;;;;19.65;48.63;97571.22;12779280;23;20524;-89
2022/08/08 10:18:01;;;;;;;1.63;1.15;;;;;;;19.65;48.78;97580.13;12737910;23;20025;-89
2022/08/08 10:23:48;;;;;;;1.45;1.10;;;;;;;19.65;48.64;97569.31;12739025;23;20045;-90
2022/08/08 10:29:10;;;;;;;1.20;1.00;;;;;;;19.67;48.62;97571.72;12760146;23;20100;-90
2022/08/08 10:34:32;;;;;;;11.68;2.80;;;;;;;19.68;48.57;97573.28;12801352;23;20021;-89
2022/08/08 10:39:53;;;;;;;15.85;3.95;;;;;;;19.68;48.78;97573.28;12779721;23;20892;-90
2022/08/08 10:45:14;;;;;;;8.77;2.80;;;;;;;19.67;48.88;97567.09;12822065;23;20040;-90
2022/08/08 10:50:37;;;;;;;7.18;2.47;;;;;;;19.69;49.00;97577.63;12780170;23;20016;-90
2022/08/08 10:55:57;;;;;;;6.57;2.05;;;;;;;19.69;49.11;97575.69;12758499;23;20024;-89
2022/08/08 11:01:19;;;;;;;3.28;1.50;;;;;;;19.69;48.73;97573.00;12821876;23;20445;-90
2022/08/08 11:06:38;;;;;;;2.50;1.40;;;;;;;19.68;48.53;97567.88;12759370;23;20085;-89
2022/08/08 11:12:00;;;;;;;3.95;1.40;;;;;;;19.70;48.45;97560.31;12738990;23;20430;-91
2022/08/08 11:17:24;;;;;;;2.22;1.33;;;;;;;19.70;48.53;97560.31;12792899;23;20027;-89
2022/08/08 11:24:04;;;;;;;2.85;1.00;;;;;;;19.70;48.44;97571.13;10532385;28;20409;-60
2022/08/08 11:29:26;;;;;;;1.58;1.15;;;;;;;19.69;48.49;97564.88;10531559;28;20056;-60
2022/08/08 11:34:49;;;;;;;2.05;1.23;;;;;;;19.70;48.49;97560.31;10527405;28;20086;-60
2022/08/08 11:40:11;;;;;;;1.77;1.20;;;;;;;19.71;48.54;97560.00;10506530;28;20052;-60
2022/08/08 11:45:30;;;;;;;1.92;1.20;;;;;;;19.72;48.44;97558.13;10525964;28;20052;-60
2022/08/08 11:50:50;;;;;;;1.05;0.90;;;;;;;19.71;48.42;97559.19;10516489;28;20169;-61
2022/08/08 11:56:23;;;;;;;3.47;1.17;;;;;;;19.72;48.66;97552.72;10516253;28;20056;-60
2022/08/08 12:01:42;;;;;;;2.40;1.20;;;;;;;19.72;48.14;97541.91;10524932;28;20048;-59
2022/08/08 12:07:06;;;;;;;2.03;1.15;;;;;;;19.72;48.31;97550.81;10528522;28;20056;-60
2022/08/08 12:12:25;;;;;;;1.15;1.00;;;;;;;19.72;48.21;97552.72;10537679;28;20403;-61
2022/08/08 12:17:45;;;;;;;2.00;1.20;;;;;;;19.74;48.08;97542.38;10527537;28;20035;-61
2022/08/08 12:23:04;;;;;;;2.88;1.15;;;;;;;19.74;48.06;97539.69;10529635;28;20094;-60
2022/08/08 12:28:24;;;;;;;1.35;1.15;;;;;;;19.75;47.90;97541.28;10525322;28;20446;-61
2022/08/08 12:33:50;;;;;;;2.08;0.75;;;;;;;19.76;47.69;97534.78;10502665;28;20049;-61
2022/08/08 12:39:10;;;;;;;0.90;0.90;;;;;;;19.76;47.87;97534.78;10501034;28;20431;-60
2022/08/08 12:44:30;;;;;;;1.20;0.90;;;;;;;19.77;47.48;97530.94;10496264;28;20495;-60
2022/08/08 12:49:53;;;;;;;1.23;0.90;;;;;;;19.77;48.02;97532.84;10480950;28;20041;-59
2022/08/08 12:55:13;;;;;;;0.70;0.70;;;;;;;19.78;47.77;97532.56;10514023;28;20048;-60
2022/08/08 13:00:33;;;;;;;1.40;0.93;;;;;;;19.78;47.58;97529.84;10496986;28;20048;-59
2022/08/08 13:06:06;;;;;;;1.00;0.90;;;;;;;19.81;47.64;97525.72;10499768;28;20395;-60
2022/08/08 13:11:34;;;;;;;1.70;1.00;;;;;;;19.79;47.89;97526.03;10495733;28;20048;-60
2022/08/08 13:16:54;;;;;;;0.80;0.80;;;;;;;19.79;48.14;97515.22;10484121;28;20057;-57
2022/08/08 13:22:17;;;;;;;1.63;0.88;;;;;;;19.81;48.39;97520.31;10473906;28;20063;-58
2022/08/08 13:27:37;;;;;;;3.38;0.80;;;;;;;19.81;48.43;97515.69;10481001;28;20072;-59
2022/08/08 13:32:58;;;;;;;1.10;1.00;;;;;;;19.82;48.20;97511.91;10459732;28;20051;-61
2022/08/08 13:38:17;;;;;;;2.38;1.00;;;;;;;19.84;47.78;97514.31;10461350;28;20056;-58
2022/08/08 13:43:36;;;;;;;2.10;1.00;;;;;;;19.84;47.96;97511.59;10461483;28;20048;-59
2022/08/08 13:48:56;;;;;;;1.10;0.85;;;;;;;19.84;47.82;97512.41;10458367;28;20135;-60
2022/08/08 13:54:20;;;;;;;1.23;0.90;;;;;;;19.86;47.66;97515.59;10462334;28;20614;-59
2022/08/08 13:59:46;;;;;;;1.40;0.90;;;;;;;19.87;47.84;97519.09;10471409;28;20041;-60
2022/08/08 14:05:09;;;;;;;1.38;0.93;;;;;;;19.88;47.69;97518.78;10472592;28;20481;-59
2022/08/08 14:10:28;;;;;;;1.60;1.00;;;;;;;19.89;47.77;97514.16;10457915;28;20114;-59
2022/08/08 14:16:00;;;;;;;1.40;0.90;;;;;;;19.88;48.17;97513.38;10500161;28;20037;-59
2022/08/08 14:21:22;;;;;;;1.38;0.88;;;;;;;19.87;48.41;97502.84;10504119;28;20060;-56
2022/08/08 14:26:44;;;;;;;1.42;0.93;;;;;;;19.88;48.54;97507.97;10471005;28;20053;-58
2022/08/08 14:32:04;;;;;;;1.80;1.02;;;;;;;19.87;48.34;97500.94;10446838;28;20041;-57
2022/08/08 14:37:24;;;;;;;2.00;1.00;;;;;;;19.89;48.42;97503.34;10463514;28;20495;-57
2022/08/08 14:42:43;;;;;;;1.60;0.90;;;;;;;19.88;48.62;97507.97;10467356;28;20607;-58
2022/08/08 14:48:03;;;;;;;1.77;1.00;;;;;;;19.89;48.50;97504.13;10466633;28;20079;-57
2022/08/08 14:53:33;;;;;;;1.30;0.90;;;;;;;19.90;48.64;97511.16;10505918;28;20055;-59
2022/08/08 14:58:53;;;;;;;0.80;0.80;;;;;;;19.91;48.69;97512.75;10471102;28;20056;-60
2022/08/08 15:04:13;;;;;;;0.82;0.80;;;;;;;19.92;48.45;97516.25;10472544;28;20049;-59
2022/08/08 15:09:32;;;;;;;2.05;0.90;;;;;;;19.92;48.24;97513.56;10468774;28;20049;-56
2022/08/08 15:14:52;;;;;;;0.80;0.80;;;;;;;19.92;48.16;97513.56;10481904;28;20523;-56
2022/08/08 15:20:13;;;;;;;3.30;0.85;;;;;;;19.94;48.06;97514.84;10489360;28;20178;-60
2022/08/08 15:25:33;;;;;;;1.38;0.75;;;;;;;19.96;47.71;97525.34;10491446;28;20059;-57
2022/08/08 15:30:52;;;;;;;1.10;0.80;;;;;;;19.98;47.70;97511.53;10470573;28;20049;-60
2022/08/08 15:36:12;;;;;;;1.27;0.70;;;;;;;19.99;47.64;97518.53;10455333;28;20045;-60
2022/08/08 15:41:31;;;;;;;6.35;1.63;;;;;;;20.00;47.38;97503.91;10469888;28;20068;-57
2022/08/08 15:46:51;;;;;;;3.97;0.93;;;;;;;20.01;47.35;97508.19;10508080;28;20041;-56
2022/08/08 15:52:12;;;;;;;2.45;0.80;;;;;;;20.00;47.59;97509.31;10490483;28;20048;-56
2022/08/08 15:57:32;;;;;;;0.77;0.73;;;;;;;20.00;47.54;97503.91;10485444;28;20052;-55
2022/08/08 16:02:51;;;;;;;3.45;0.75;;;;;;;20.00;47.42;97509.31;10493638;28;20052;-59
2022/08/08 16:08:11;;;;;;;3.08;0.90;;;;;;;20.00;47.56;97510.09;10476119;28;20044;-59
2022/08/08 16:13:31;;;;;;;4.03;0.90;;;;;;;20.00;47.08;97504.69;10485990;28;20049;-54
2022/08/08 16:18:50;;;;;;;2.22;0.90;;;;;;;20.00;47.35;97512.81;10475220;28;20060;-60
2022/08/08 16:24:12;;;;;;;1.83;0.82;;;;;;;20.02;47.35;97512.50;10462662;28;20049;-60
2022/08/08 16:29:32;;;;;;;0.82;0.80;;;;;;;20.03;47.33;97504.09;10463486;28;20071;-57
2022/08/08 16:34:51;;;;;;;1.15;0.82;;;;;;;20.03;47.49;97511.38;10477765;28;20041;-56
2022/08/08 16:40:11;;;;;;;1.98;0.88;;;;;;;20.04;47.34;97507.59;10476657;28;20045;-61
2022/08/08 16:45:31;;;;;;;1.52;0.60;;;;;;;20.05;47.07;97509.16;10462827;28;20048;-60
2022/08/08 16:50:50;;;;;;;8.63;2.55;;;;;;;20.06;47.14;97505.38;10462537;28;20056;-61
2022/08/08 16:56:10;;;;;;;7.32;2.70;;;;;;;20.05;47.47;97512.69;10461620;28;20496;-60
2022/08/08 17:01:29;;;;;;;11.48;3.22;;;;;;;20.05;47.97;97501.03;10460935;28;20070;-60
2022/08/08 17:06:49;;;;;;;6.55;2.22;;;;;;;20.04;47.93;97518.41;10461282;28;20049;-59
2022/08/08 17:12:10;;;;;;;3.92;1.98;;;;;;;20.04;48.23;97521.91;10473380;28;20044;-58
2022/08/08 17:17:30;;;;;;;3.45;1.27;;;;;;;20.05;48.21;97519.97;10491947;28;20029;-61
2022/08/08 17:22:49;;;;;;;1.73;1.00;;;;;;;20.04;48.76;97521.09;10498334;28;20052;-61
2022/08/08 17:28:09;;;;;;;0.90;0.80;;;;;;;20.02;48.89;97526.81;10513677;28;20071;-60
2022/08/08 17:33:28;;;;;;;1.33;0.95;;;;;;;20.02;48.86;97528.72;10489578;28;20045;-60
2022/08/08 17:38:48;;;;;;;1.23;0.80;;;;;;;19.99;49.08;97535.53;10507726;28;20433;-61
2022/08/08 17:44:09;;;;;;;1.23;0.80;;;;;;;19.99;49.07;97529.34;10497829;28;20056;-61
2022/08/08 17:49:29;;;;;;;1.42;0.88;;;;;;;19.96;48.68;97536.16;10496755;28;20053;-61
2022/08/08 17:54:49;;;;;;;1.70;0.70;;;;;;;19.95;48.79;97546.19;10479136;28;20060;-61
2022/08/08 18:00:09;;;;;;;2.15;0.80;;;;;;;19.92;48.81;97540.59;10509299;28;20032;-61
2022/08/08 18:05:29;;;;;;;0.90;0.70;;;;;;;19.89;48.82;97547.41;10493765;28;20060;-61
2022/08/08 18:10:50;;;;;;;2.10;0.90;;;;;;;19.87;49.14;97541.50;10467036;28;20052;-61
2022/08/08 18:16:09;;;;;;;3.55;0.80;;;;;;;19.91;49.31;97547.09;10492816;28;20404;-58
2022/08/08 18:21:29;;;;;;;4.55;1.30;;;;;;;19.93;49.67;97547.59;10456589;28;20067;-57
2022/08/08 18:26:51;;;;;;;4.15;1.15;;;;;;;19.94;50.12;97568.13;10490724;28;20106;-58
2022/08/08 18:32:11;;;;;;;2.72;1.10;;;;;;;19.94;50.63;97563.50;10509834;28;20052;-59
2022/08/08 18:37:30;;;;;;;2.50;1.30;;;;;;;19.95;50.93;97573.25;10474013;28;20060;-60
2022/08/08 18:42:49;;;;;;;3.88;1.20;;;;;;;19.94;51.10;97577.03;10457623;28;20154;-58
2022/08/08 18:48:09;;;;;;;2.58;0.90;;;;;;;19.96;51.17;97579.44;10457845;28;20053;-58
2022/08/08 18:53:29;;;;;;;19.05;1.50;;;;;;;19.95;51.44;97589.47;10456888;28;20048;-58
2022/08/08 18:58:48;;;;;;;1.40;1.08;;;;;;;19.97;51.36;97607.28;10457431;28;20102;-58
2022/08/08 19:04:07;;;;;;;1.63;1.13;;;;;;;19.97;51.25;97609.97;10480469;28;20484;-60
2022/08/08 19:09:27;;;;;;;1.70;0.90;;;;;;;19.97;51.23;97615.38;10496175;28;20514;-60
2022/08/08 19:14:46;;;;;;;1.52;1.05;;;;;;;19.95;51.36;97615.69;10491043;28;20056;-60
2022/08/08 19:20:06;;;;;;;1.52;1.00;;;;;;;19.94;51.24;97619.50;10476844;28;20053;-59
2022/08/08 19:25:25;;;;;;;1.08;0.98;;;;;;;19.95;51.17;97629.22;10483194;28;20037;-57
2022/08/08 19:30:45;;;;;;;1.58;0.80;;;;;;;19.94;51.14;97627.63;10495979;28;20098;-60
2022/08/08 19:36:05;;;;;;;2.13;1.00;;;;;;;19.95;51.13;97632.75;10479035;28;20094;-60
2022/08/08 19:41:28;;;;;;;1.15;1.08;;;;;;;19.94;51.14;97631.13;10458661;28;20139;-60
2022/08/08 19:46:48;;;;;;;1.40;1.25;;;;;;;19.95;51.04;97645.44;10476809;28;20052;-59
2022/08/08 19:52:07;;;;;;;1.50;1.40;;;;;;;19.94;50.92;97647.34;10460481;28;20052;-58
2022/08/08 19:57:26;;;;;;;2.35;1.67;;;;;;;19.93;50.94;97644.94;10491852;28;20387;-62
2022/08/08 20:02:46;;;;;;;1.63;1.52;;;;;;;19.94;51.11;97650.06;10474878;28;20128;-61
2022/08/08 20:08:05;;;;;;;2.33;1.60;;;;;;;19.93;51.01;97656.59;10464350;28;20037;-61
2022/08/08 20:13:25;;;;;;;1.70;1.50;;;;;;;19.94;50.96;97649.25;10482665;28;20052;-61
2022/08/08 20:18:48;;;;;;;2.17;1.30;;;;;;;19.93;51.07;97653.88;10462701;28;20052;-61
2022/08/08 20:24:08;;;;;;;1.77;1.50;;;;;;;19.93;51.05;97656.59;10461503;28;20060;-61
2022/08/08 20:29:27;;;;;;;1.42;1.33;;;;;;;19.94;51.06;97665.50;10461860;28;20057;-61
2022/08/08 20:34:47;;;;;;;1.40;1.20;;;;;;;19.93;51.18;97664.69;10461502;28;20060;-60
2022/08/08 20:40:07;;;;;;;1.55;1.20;;;;;;;19.94;51.23;97670.91;10451902;28;20114;-61
2022/08/08 20:45:27;;;;;;;1.67;1.33;;;;;;;19.92;51.31;97668.50;10469568;28;20110;-60
2022/08/08 20:50:46;;;;;;;2.83;1.20;;;;;;;19.93;51.19;97672.81;10458170;28;20108;-61
2022/08/08 20:56:06;;;;;;;1.77;1.30;;;;;;;19.92;51.21;97679.31;10461882;28;20393;-60
2022/08/08 21:01:26;;;;;;;1.45;1.30;;;;;;;19.93;51.24;97677.41;10474804;28;20408;-61
2022/08/08 21:06:46;;;;;;;1.30;1.20;;;;;;;19.92;51.26;97673.91;10460772;28;20476;-61
2022/08/08 21:12:06;;;;;;;2.88;1.40;;;;;;;19.93;51.35;97675.50;10475040;28;20051;-61
2022/08/08 21:17:26;;;;;;;1.20;1.10;;;;;;;19.92;51.27;97676.59;10448287;28;20060;-59
2022/08/08 21:22:45;;;;;;;0.93;0.90;;;;;;;19.92;51.30;97673.91;10459739;28;20056;-61
2022/08/08 21:28:04;;;;;;;1.65;1.20;;;;;;;19.92;51.20;97671.19;10473913;28;20040;-61
2022/08/08 21:33:25;;;;;;;2.67;1.30;;;;;;;19.92;51.38;97671.19;10473385;28;20412;-61
2022/08/08 21:38:44;;;;;;;5.47;1.20;;;;;;;19.92;51.24;97675.81;10473268;28;20346;-61
2022/08/08 21:44:04;;;;;;;1.10;1.00;;;;;;;19.91;51.26;97675.00;10472718;28;20071;-62
2022/08/08 21:49:24;;;;;;;1.08;1.02;;;;;;;19.91;51.25;97675.00;10457763;28;20053;-60
2022/08/08 21:54:43;;;;;;;1.20;1.10;;;;;;;19.91;51.31;97668.78;10464090;28;20044;-61
2022/08/08 22:00:03;;;;;;;1.10;1.00;;;;;;;19.92;51.32;97678.50;10461760;28;20045;-61
2022/08/08 22:05:33;;;;;;;1.30;1.20;;;;;;;19.91;51.31;97671.50;10461245;28;20053;-61
2022/08/08 22:10:52;;;;;;;2.40;1.10;;;;;;;19.91;51.36;97679.59;10462200;28;20044;-61
2022/08/08 22:16:13;;;;;;;1.50;1.10;;;;;;;19.91;51.25;97680.41;10486393;28;20430;-61
2022/08/08 22:21:32;;;;;;;1.23;1.10;;;;;;;19.91;51.28;97679.59;10474670;28;20064;-60
2022/08/08 22:26:52;;;;;;;1.20;1.10;;;;;;;19.90;51.31;97681.53;10497341;28;20061;-60
2022/08/08 22:32:11;;;;;;;1.02;1.00;;;;;;;19.91;51.33;97685.00;10489921;28;20052;-61
2022/08/08 22:37:31;;;;;;;1.27;1.17;;;;;;;19.91;51.21;97680.41;10457476;28;20053;-61
2022/08/08 22:42:50;;;;;;;0.93;0.82;;;;;;;19.90;51.33;97680.72;10457645;28;20076;-61
2022/08/08 22:48:10;;;;;;;1.70;1.13;;;;;;;19.90;51.20;97683.44;10444470;28;20064;-60
2022/08/08 22:53:29;;;;;;;1.10;1.00;;;;;;;19.89;51.20;97679.91;10457136;28;20056;-61
2022/08/08 22:58:49;;;;;;;0.90;0.90;;;;;;;19.90;51.23;97686.13;10457278;28;20057;-61
2022/08/08 23:04:08;;;;;;;1.00;0.93;;;;;;;19.89;51.13;97681.81;10457405;28;20052;-60
2022/08/08 23:09:27;;;;;;;1.20;0.90;;;;;;;19.90;51.11;97675.31;10457277;28;20057;-60
2022/08/08 23:14:47;;;;;;;1.67;1.00;;;;;;;19.89;51.20;97673.69;10482754;28;20061;-62
2022/08/08 23:20:07;;;;;;;1.00;0.90;;;;;;;19.89;51.17;97687.22;10465511;28;20515;-61
2022/08/08 23:25:26;;;;;;;0.82;0.82;;;;;;;19.89;51.20;97688.00;10455242;28;20432;-60
2022/08/08 23:30:46;;;;;;;0.93;0.82;;;;;;;19.88;51.09;97681.03;10487253;28;20125;-61
2022/08/08 23:36:06;;;;;;;1.65;1.08;;;;;;;19.87;51.21;97679.41;10495800;28;20052;-61
2022/08/08 23:41:25;;;;;;;1.02;0.93;;;;;;;19.89;51.25;97681.81;10490483;28;20053;-61
2022/08/08 23:46:46;;;;;;;2.30;1.10;;;;;;;19.88;51.10;97672.13;10494060;28;20487;-61
2022/08/08 23:52:05;;;;;;;1.38;0.85;;;;;;;19.87;51.15;97671.31;10493921;28;20070;-61
2022/08/08 23:57:25;;;;;;;1.23;1.05;;;;;;;19.87;51.03;97674.00;10488570;28;20419;-61
